NCAR-RAP Real-Time Weather Data

Output produced by METARs form (06 May 2021  16:33 UTC)
found at http://weather.rap.ucar.edu/surface/
 
KATL 061552Z 33013G20KT 10SM FEW055 19/07 A3010 RMK AO2 SLP189 T01890072
KATL 061452Z 31009KT 10SM FEW050 FEW250 18/09 A3009 RMK AO2 SLP187 T01780089 50002
KATL 061352Z 32010KT 10SM FEW250 16/08 A3010 RMK AO2 SLP190 T01560083
KATL 061252Z 32012KT 10SM FEW250 13/08 A3009 RMK AO2 SLP187 T01330083
KATL 061152Z 31008KT 10SM SCT250 12/08 A3009 RMK AO2 SLP185 T01170083 10144 20106 53013
KATL 061052Z 31008KT 10SM SCT250 11/08 A3007 RMK AO2 SLP179 T01060083
KATL 060952Z 32011KT 10SM SCT250 11/08 A3006 RMK AO2 SLP173 T01110083
KATL 060852Z 32008KT 10SM CLR 12/08 A3005 RMK AO2 SLP170 T01170083 53001
KATL 060752Z 32009KT 10SM CLR 13/08 A3005 RMK AO2 SLP169 T01280078
KATL 060652Z 33006KT 10SM CLR 13/08 A3004 RMK AO2 SLP168 T01330078
KATL 060552Z 33011KT 10SM CLR 14/09 A3005 RMK AO2 SLP169 T01440089 10217 20144 50000
KATL 060452Z 33009KT 10SM CLR 16/10 A3005 RMK AO2 SLP171 T01560100 402560156
KATL 060352Z 34012G21KT 10SM CLR 17/11 A3005 RMK AO2 SLP171 T01670111
KATL 060252Z 33008KT 10SM FEW060 FEW250 18/13 A3004 RMK AO2 SLP167 T01780133 51010
KATL 060152Z 32009KT 10SM FEW060 FEW250 19/13 A3004 RMK AO2 SLP166 T01890133
KATL 060052Z 32007KT 10SM FEW060 FEW250 19/14 A3002 RMK AO2 SLP160 T01940139